Terminal Aerodrome Forecast
Issued by NWS Bismarck, ND

Home | Current Version | Previous Version | Graphics & Text | Print | Product List | Glossary On
Versions: 1 2 3 4 5 6 7 8 9 10 11 12 13 14 15
722
FTUS43 KBIS 101125
TAFISN
TAF
KISN 101125Z 1012/1112 21007KT P6SM BKN200 WS020/33040KT
     FM101600 33008KT P6SM OVC015
     FM110000 36008KT P6SM OVC008
     FM110700 03004KT 6SM BR OVC010=

USA.gov is the U.S. government's official web portal to all federal, state and local government web resources and services.